createdAt,value
2022-10-15T00:09:07.734Z,101718.28
2022-10-15T00:14:12.155Z,101768.06
2022-10-15T00:19:10.342Z,101731.94
2022-10-15T00:24:10.169Z,101672.06
2022-10-15T00:29:17.580Z,101677.41
2022-10-15T00:34:15.449Z,101687.75
2022-10-15T00:39:15.813Z,101694.13
2022-10-15T00:44:47.771Z,101752.28
2022-10-15T00:50:01.490Z,101749.97
2022-10-15T00:55:03.243Z,101608.75
2022-10-15T01:00:07.355Z,101648.97
2022-10-15T01:05:06.347Z,101749.78
2022-10-15T01:10:05.473Z,101728.16
2022-10-15T01:15:10.318Z,101715.00
2022-10-15T01:20:45.524Z,101688.66
2022-10-15T01:26:23.694Z,101761.22
2022-10-15T01:31:35.728Z,101599.13
2022-10-15T01:36:38.091Z,101693.78
2022-10-15T01:41:41.623Z,101644.50
2022-10-15T01:47:02.980Z,101758.34
2022-10-15T01:52:06.597Z,101769.03
2022-10-15T01:57:05.685Z,101742.31
2022-10-15T02:02:04.113Z,101742.31
2022-10-15T02:07:08.810Z,101763.69
2022-10-15T02:12:18.006Z,101726.44
2022-10-15T02:17:21.519Z,101698.50
2022-10-15T02:22:23.508Z,101763.19
2022-10-15T02:27:21.738Z,101745.44
2022-10-15T02:32:22.344Z,101777.41
2022-10-15T02:37:22.537Z,101726.66
2022-10-15T02:42:20.524Z,101692.81
2022-10-15T02:47:19.846Z,101640.28
2022-10-15T02:52:17.627Z,101725.75
2022-10-15T02:57:16.156Z,101690.56
2022-10-15T03:02:22.832Z,101690.59
2022-10-15T03:07:26.833Z,101735.94
2022-10-15T03:12:33.167Z,101736.28
2022-10-15T03:17:58.973Z,101666.28
2022-10-15T03:22:56.015Z,101746.22
2022-10-15T03:27:56.630Z,101752.97
2022-10-15T03:33:03.733Z,101743.91
2022-10-15T03:38:00.822Z,101708.56
2022-10-15T03:42:58.227Z,101701.19
2022-10-15T03:47:57.826Z,101727.75
2022-10-15T03:53:03.702Z,101773.66
2022-10-15T03:58:04.211Z,101676.38
2022-10-15T04:03:08.750Z,101764.88
2022-10-15T04:14:39.206Z,101658.38
2022-10-15T04:25:29.995Z,101726.00
2022-10-15T04:30:30.365Z,101709.38
2022-10-15T04:35:36.379Z,101753.91
2022-10-15T04:41:29.294Z,101760.25
2022-10-15T04:46:40.576Z,101711.09
2022-10-15T04:52:54.965Z,101791.47
2022-10-15T04:57:33.202Z,101771.72
2022-10-15T05:08:50.070Z,101724.03
2022-10-15T05:14:31.488Z,101724.88
2022-10-15T05:19:54.967Z,101683.63
2022-10-15T05:25:18.606Z,101795.56
2022-10-15T05:30:19.066Z,101707.03
2022-10-15T05:35:27.065Z,101787.09
2022-10-15T05:40:41.052Z,101745.03
2022-10-15T05:46:19.799Z,101823.47
2022-10-15T05:51:23.973Z,101828.91
2022-10-15T05:56:29.233Z,101831.75
2022-10-15T06:01:39.117Z,101754.75
2022-10-15T06:06:42.888Z,101838.41
2022-10-15T06:11:40.160Z,101794.75
2022-10-15T06:17:19.192Z,101737.59
2022-10-15T06:22:23.061Z,101851.31
2022-10-15T06:27:20.164Z,101829.28
2022-10-15T06:33:04.732Z,101787.09
2022-10-15T06:38:05.919Z,101790.56
2022-10-15T06:43:07.990Z,101784.72
2022-10-15T06:48:08.448Z,101861.19
2022-10-15T06:53:08.126Z,101863.06
2022-10-15T06:58:16.270Z,101863.94
2022-10-15T07:03:15.438Z,101859.00
2022-10-15T07:08:22.365Z,101799.56
2022-10-15T07:13:24.393Z,101854.38
2022-10-15T07:18:22.302Z,101863.81
2022-10-15T07:23:27.743Z,101832.19
2022-10-15T07:28:54.955Z,101828.94
2022-10-15T07:34:24.227Z,101794.31
2022-10-15T07:39:23.704Z,101810.03
2022-10-15T07:44:23.999Z,101746.78
2022-10-15T07:49:22.919Z,101823.09
2022-10-15T07:54:24.226Z,101740.53
2022-10-15T07:59:24.790Z,101826.09
2022-10-15T08:04:22.119Z,101799.91
2022-10-15T08:09:31.973Z,101861.31
2022-10-15T08:19:43.753Z,101785.72
2022-10-15T08:24:44.162Z,101837.38
2022-10-15T08:29:42.455Z,101774.19
2022-10-15T08:34:47.635Z,101860.03
2022-10-15T08:39:50.611Z,101832.00
2022-10-15T08:45:28.061Z,101848.53
2022-10-15T08:50:54.105Z,101834.19
2022-10-15T08:55:55.451Z,101869.19
2022-10-15T09:00:57.838Z,101803.38
2022-10-15T09:06:07.483Z,101855.56
2022-10-15T09:11:39.246Z,101856.38
2022-10-15T09:16:43.151Z,101818.09
2022-10-15T09:21:43.837Z,101779.88
2022-10-15T09:27:23.401Z,101857.28
2022-10-15T09:32:34.752Z,101799.63
2022-10-15T09:37:38.669Z,101752.59
2022-10-15T09:42:43.891Z,101780.69
2022-10-15T09:48:24.677Z,101854.66
2022-10-15T09:59:33.411Z,101775.25
2022-10-15T10:10:33.560Z,101772.19
2022-10-15T10:15:38.917Z,101765.34
2022-10-15T10:21:17.179Z,101810.69
2022-10-15T10:31:36.790Z,101799.31
2022-10-15T10:36:40.677Z,101813.00
2022-10-15T10:47:41.713Z,101795.38
2022-10-15T10:52:59.451Z,101812.94
2022-10-15T10:58:00.472Z,101789.63
2022-10-15T11:03:03.711Z,101777.97
2022-10-15T11:14:08.318Z,101734.53
2022-10-15T11:20:36.278Z,101754.03
2022-10-15T11:25:48.317Z,101782.59
2022-10-15T11:30:59.843Z,101697.78
2022-10-15T11:36:36.122Z,101698.84
2022-10-15T11:41:45.444Z,101766.81
2022-10-15T11:47:37.700Z,101693.09
2022-10-15T11:52:48.013Z,101695.53
2022-10-15T11:58:45.194Z,101709.28
2022-10-15T12:04:00.591Z,101753.03
2022-10-15T12:16:17.238Z,101752.47
2022-10-15T12:21:38.871Z,101722.25
2022-10-15T12:39:52.833Z,101640.25
2022-10-15T12:45:08.810Z,101759.47
2022-10-15T12:50:57.358Z,101756.13
2022-10-15T12:56:15.074Z,101735.16
2022-10-15T13:01:50.024Z,101728.69
2022-10-15T13:07:03.555Z,101655.78
2022-10-15T13:12:33.062Z,101751.41
2022-10-15T13:17:31.856Z,101678.56
2022-10-15T13:22:31.210Z,101648.47
2022-10-15T13:27:50.036Z,101705.25
2022-10-15T13:32:51.430Z,101717.94
2022-10-15T13:38:18.121Z,101734.16
2022-10-15T13:49:48.446Z,101758.28
2022-10-15T14:01:18.978Z,101771.75
2022-10-15T14:06:24.114Z,101711.09
2022-10-15T14:11:37.638Z,101767.47
2022-10-15T14:17:25.284Z,101768.09
2022-10-15T14:22:36.501Z,101719.31
2022-10-15T14:27:35.494Z,101771.25
2022-10-15T14:38:17.444Z,101664.47
2022-10-15T14:43:19.296Z,101663.47
2022-10-15T14:51:17.165Z,101633.53
2022-10-15T14:55:41.650Z,101733.72
2022-10-15T15:00:49.881Z,101725.34
2022-10-15T15:05:54.050Z,101757.47
2022-10-15T15:10:56.901Z,101668.94
2022-10-15T15:15:59.442Z,101672.72
2022-10-15T15:21:39.643Z,101736.25
2022-10-15T15:26:37.856Z,101758.25
2022-10-15T15:32:08.213Z,101688.78
2022-10-15T15:37:27.133Z,101688.13
2022-10-15T15:42:25.963Z,101667.16
2022-10-15T15:52:51.135Z,101745.22
2022-10-15T15:59:19.392Z,101649.34
2022-10-15T16:04:21.975Z,101764.31
2022-10-15T16:10:08.392Z,101801.59
2022-10-15T16:15:17.607Z,101716.66
2022-10-15T16:26:51.967Z,101741.22
2022-10-15T16:37:39.058Z,101800.44
2022-10-15T16:42:48.870Z,101748.16
2022-10-15T16:48:03.109Z,101756.09
2022-10-15T16:54:30.386Z,101705.50
2022-10-15T17:00:02.031Z,101847.03
2022-10-15T17:12:03.742Z,101844.06
2022-10-15T17:23:13.103Z,101802.00
2022-10-15T17:35:01.379Z,101790.53
2022-10-15T17:47:45.449Z,101868.22
2022-10-15T17:53:04.491Z,101858.84
2022-10-15T17:58:31.139Z,101804.66
2022-10-15T18:03:31.321Z,101799.28
2022-10-15T18:08:55.844Z,101824.91
2022-10-15T18:14:10.786Z,101829.19
2022-10-15T18:19:48.054Z,101897.31
2022-10-15T18:25:29.947Z,101780.09
2022-10-15T18:30:52.480Z,101849.97
2022-10-15T18:36:53.013Z,101879.41
2022-10-15T18:50:02.193Z,101830.09
2022-10-15T18:55:56.089Z,101786.13
2022-10-15T19:01:15.138Z,101800.56
2022-10-15T19:06:14.375Z,101877.41
2022-10-15T19:12:08.485Z,101890.09
2022-10-15T19:17:25.622Z,101921.97
2022-10-15T19:23:11.329Z,101918.97
2022-10-15T19:28:32.210Z,101893.31
2022-10-15T19:33:46.121Z,101889.44
2022-10-15T19:45:10.964Z,101949.41
2022-10-15T19:51:17.462Z,101962.91
2022-10-15T19:57:12.169Z,101864.16
2022-10-15T20:02:15.163Z,101969.78
2022-10-15T20:07:21.040Z,101953.94
2022-10-15T20:12:38.092Z,101947.41
2022-10-15T20:31:10.981Z,101885.53
2022-10-15T20:36:42.928Z,101917.63
2022-10-15T20:42:01.500Z,101836.19
2022-10-15T20:47:33.914Z,101975.44
2022-10-15T20:58:29.712Z,101948.00
2022-10-15T21:03:30.896Z,101812.78
2022-10-15T21:08:28.339Z,101909.13
2022-10-15T21:14:06.614Z,101961.09
2022-10-15T21:19:04.361Z,101866.59
2022-10-15T21:24:06.818Z,101985.91
2022-10-15T21:29:25.637Z,101963.72
2022-10-15T21:34:30.060Z,101917.88
2022-10-15T21:39:33.845Z,101971.19
2022-10-15T21:44:40.308Z,101958.84
2022-10-15T21:50:08.702Z,101902.31
2022-10-15T21:55:23.595Z,101997.81
2022-10-15T22:00:23.375Z,101990.13
2022-10-15T22:05:23.730Z,101962.72
2022-10-15T22:10:36.680Z,101996.22
2022-10-15T22:15:38.607Z,101985.97
2022-10-15T22:20:38.834Z,101895.91
2022-10-15T22:26:02.685Z,101968.31
2022-10-15T22:31:07.417Z,101975.81
2022-10-15T22:36:15.928Z,101935.75
2022-10-15T22:41:20.607Z,101988.34
2022-10-15T22:46:19.601Z,101989.31
2022-10-15T22:51:18.367Z,102020.66
2022-10-15T22:56:20.028Z,101969.13
2022-10-15T23:01:29.722Z,102032.00
2022-10-15T23:06:27.361Z,101943.81
2022-10-15T23:11:29.319Z,101916.63
2022-10-15T23:16:30.171Z,101908.94
2022-10-15T23:21:33.570Z,102007.44
2022-10-15T23:26:33.866Z,102019.06
2022-10-15T23:32:14.262Z,102051.13
2022-10-15T23:37:14.769Z,102032.44
2022-10-15T23:42:11.996Z,101957.88
2022-10-15T23:47:11.265Z,102071.31
2022-10-15T23:52:18.773Z,102021.03
2022-10-15T23:57:17.546Z,101998.78
